createdAt,value
2019-02-25T00:01:11.089Z,33.66
2019-02-25T00:03:37.962Z,33.13
2019-02-25T00:06:04.630Z,34.27
2019-02-25T00:08:31.548Z,34.13
2019-02-25T00:10:58.215Z,34.64
2019-02-25T00:13:25.213Z,34.31
2019-02-25T00:15:51.882Z,33.83
2019-02-25T00:18:18.580Z,33.61
2019-02-25T00:20:45.439Z,33.98
2019-02-25T00:23:12.354Z,34.24
2019-02-25T00:25:39.019Z,34.53
2019-02-25T00:28:05.636Z,34.17
2019-02-25T00:33:18.137Z,33.87
2019-02-25T00:35:45.068Z,33.64
2019-02-25T00:38:12.207Z,34.32
2019-02-25T00:40:40.679Z,34.32
2019-02-25T00:43:07.602Z,34.36
2019-02-25T00:45:34.302Z,34.73
2019-02-25T00:48:02.592Z,34.90
2019-02-25T00:50:29.272Z,34.70
2019-02-25T00:52:55.944Z,34.80
2019-02-25T00:55:22.603Z,34.11
2019-02-25T00:57:49.558Z,34.20
2019-02-25T01:00:16.186Z,34.30
2019-02-25T01:02:42.833Z,34.64
2019-02-25T01:05:11.118Z,34.54
2019-02-25T01:07:37.766Z,34.48
2019-02-25T01:10:04.415Z,34.33
2019-02-25T01:12:31.130Z,34.67
2019-02-25T01:14:58.498Z,34.65
2019-02-25T01:17:25.131Z,34.74
2019-02-25T01:19:51.781Z,34.97
2019-02-25T01:22:19.992Z,34.76
2019-02-25T01:24:46.943Z,35.18
2019-02-25T01:27:14.866Z,35.02
2019-02-25T01:29:41.929Z,34.92
2019-02-25T01:32:08.706Z,35.33
2019-02-25T01:34:35.727Z,35.60
2019-02-25T01:37:02.661Z,35.70
2019-02-25T01:39:29.272Z,35.96
2019-02-25T01:41:56.240Z,35.79
2019-02-25T01:44:23.194Z,36.10
2019-02-25T01:46:50.034Z,36.41
2019-02-25T01:49:16.756Z,36.84
2019-02-25T01:51:43.503Z,37.67
2019-02-25T01:54:10.671Z,38.24
2019-02-25T01:56:37.556Z,38.05
2019-02-25T01:59:04.638Z,38.20
2019-02-25T02:01:31.586Z,38.19
2019-02-25T02:03:58.486Z,37.63
2019-02-25T02:06:25.098Z,37.60
2019-02-25T02:08:51.734Z,37.52
2019-02-25T02:11:18.594Z,37.66
2019-02-25T02:13:45.277Z,37.65
2019-02-25T02:16:12.995Z,37.62
2019-02-25T02:18:39.746Z,37.49
2019-02-25T02:21:06.338Z,38.01
2019-02-25T02:23:33.009Z,38.30
2019-02-25T02:25:59.920Z,39.14
2019-02-25T02:28:26.605Z,38.77
2019-02-25T02:30:53.462Z,38.58
2019-02-25T02:33:20.379Z,38.59
2019-02-25T02:35:54.528Z,38.57
2019-02-25T02:38:21.420Z,38.73
2019-02-25T02:40:48.644Z,38.58
2019-02-25T02:43:15.525Z,38.86
2019-02-25T02:45:43.513Z,38.90
2019-02-25T02:50:56.879Z,39.47
2019-02-25T02:53:24.172Z,40.26
2019-02-25T02:55:51.562Z,40.60
2019-02-25T02:58:18.400Z,40.86
2019-02-25T03:00:45.102Z,40.57
2019-02-25T03:03:11.940Z,40.68
2019-02-25T03:05:38.924Z,40.55
2019-02-25T03:08:05.837Z,40.46
2019-02-25T03:10:32.940Z,40.14
2019-02-25T03:12:59.964Z,40.38
2019-02-25T03:15:27.836Z,40.57
2019-02-25T03:17:54.858Z,40.46
2019-02-25T03:20:22.825Z,40.31
2019-02-25T03:22:49.665Z,40.07
2019-02-25T03:25:18.888Z,39.97
2019-02-25T03:27:45.891Z,39.70
2019-02-25T03:30:13.879Z,40.54
2019-02-25T03:32:40.561Z,40.91
2019-02-25T03:35:07.372Z,41.24
2019-02-25T03:37:34.333Z,40.97
2019-02-25T03:40:01.131Z,41.27
2019-02-25T03:42:27.881Z,41.67
2019-02-25T03:44:55.162Z,42.01
2019-02-25T03:47:22.220Z,41.76
2019-02-25T03:49:50.028Z,41.71
2019-02-25T03:52:17.848Z,41.26
2019-02-25T03:54:45.687Z,41.45
2019-02-25T03:57:14.361Z,41.70
2019-02-25T03:59:41.328Z,42.41
2019-02-25T04:02:08.631Z,42.39
2019-02-25T04:04:35.368Z,42.07
2019-02-25T04:07:02.070Z,41.79
2019-02-25T04:09:28.924Z,41.83
2019-02-25T04:11:55.668Z,42.71
2019-02-25T04:14:22.312Z,42.14
2019-02-25T04:16:49.202Z,42.33
2019-02-25T04:19:16.250Z,43.05
2019-02-25T04:21:44.650Z,43.28
2019-02-25T04:24:11.342Z,43.32
2019-02-25T04:26:38.325Z,44.37
2019-02-25T04:29:05.320Z,46.33
2019-02-25T04:31:32.369Z,46.60
2019-02-25T04:33:59.953Z,45.88
2019-02-25T04:36:26.599Z,47.00
2019-02-25T04:38:53.281Z,46.76
2019-02-25T04:41:21.084Z,47.10
2019-02-25T04:43:47.766Z,46.26
2019-02-25T04:46:14.630Z,45.93
2019-02-25T04:48:41.270Z,45.24
2019-02-25T04:51:07.923Z,44.96
2019-02-25T04:53:34.874Z,44.89
2019-02-25T04:56:01.554Z,44.98
2019-02-25T04:58:28.154Z,44.92
2019-02-25T05:00:54.997Z,45.09
2019-02-25T05:03:21.909Z,44.62
2019-02-25T05:05:49.743Z,44.69
2019-02-25T05:08:16.347Z,44.99
2019-02-25T05:10:43.280Z,45.36
2019-02-25T05:13:10.143Z,45.86
2019-02-25T05:15:53.813Z,46.20
2019-02-25T05:18:20.665Z,47.18
2019-02-25T05:20:47.266Z,47.23
2019-02-25T05:23:14.265Z,46.71
2019-02-25T05:25:41.276Z,47.17
2019-02-25T05:28:07.887Z,46.82
2019-02-25T05:30:34.500Z,46.05
2019-02-25T05:33:01.338Z,45.54
2019-02-25T05:35:27.949Z,45.75
2019-02-25T05:37:54.539Z,45.75
2019-02-25T05:40:21.492Z,45.88
2019-02-25T05:42:48.386Z,46.40
2019-02-25T05:45:14.988Z,45.78
2019-02-25T05:47:41.721Z,46.08
2019-02-25T05:50:08.594Z,45.86
2019-02-25T05:52:35.514Z,45.12
2019-02-25T05:55:02.219Z,45.78
2019-02-25T05:57:28.959Z,45.81
2019-02-25T05:59:55.784Z,46.02
2019-02-25T06:02:22.730Z,46.07
2019-02-25T06:04:49.402Z,46.00
2019-02-25T06:07:16.167Z,45.62
2019-02-25T06:09:43.096Z,45.44
2019-02-25T06:12:09.783Z,45.02
2019-02-25T06:14:36.473Z,44.40
2019-02-25T06:17:03.323Z,44.19
2019-02-25T06:19:29.944Z,44.04
2019-02-25T06:21:56.686Z,44.16
2019-02-25T06:24:23.461Z,44.57
2019-02-25T06:26:50.091Z,44.78
2019-02-25T06:29:20.552Z,44.89
2019-02-25T06:31:47.281Z,45.15
2019-02-25T06:34:14.219Z,45.27
2019-02-25T06:36:40.919Z,45.58
2019-02-25T06:39:07.597Z,45.52
2019-02-25T06:41:34.907Z,45.27
2019-02-25T06:44:13.464Z,44.76
2019-02-25T06:46:40.263Z,44.62
2019-02-25T06:49:07.131Z,44.56
2019-02-25T06:54:18.042Z,44.42
2019-02-25T06:56:48.528Z,44.23
2019-02-25T06:59:15.145Z,43.77
2019-02-25T07:01:42.529Z,42.66
2019-02-25T07:04:09.157Z,43.58
2019-02-25T07:06:36.138Z,44.18
2019-02-25T07:09:15.434Z,44.18
2019-02-25T07:11:42.285Z,43.90
2019-02-25T07:14:17.542Z,43.90
2019-02-25T07:16:44.191Z,43.06
2019-02-25T07:19:10.818Z,43.33
2019-02-25T07:21:37.424Z,43.11
2019-02-25T07:24:04.378Z,42.71
2019-02-25T07:26:31.010Z,41.17
2019-02-25T07:28:58.199Z,40.71
2019-02-25T07:31:24.915Z,41.22
2019-02-25T07:33:51.605Z,41.04
2019-02-25T07:36:18.269Z,40.31
2019-02-25T07:38:45.034Z,40.58
2019-02-25T07:41:11.709Z,40.92
2019-02-25T07:43:38.331Z,40.36
2019-02-25T07:46:06.441Z,39.89
2019-02-25T07:48:33.215Z,40.26
2019-02-25T07:51:00.084Z,39.66
2019-02-25T07:53:26.757Z,39.35
2019-02-25T07:56:02.138Z,39.63
2019-02-25T07:58:21.904Z,39.54
2019-02-25T08:00:48.607Z,38.58
2019-02-25T08:03:15.550Z,38.48
2019-02-25T08:05:42.399Z,38.59
2019-02-25T08:08:09.078Z,38.44
2019-02-25T08:10:36.229Z,37.73
2019-02-25T08:13:03.125Z,38.21
2019-02-25T08:15:30.000Z,38.28
2019-02-25T08:17:56.938Z,37.83
2019-02-25T08:20:23.931Z,37.84
2019-02-25T08:22:50.526Z,37.95
2019-02-25T08:25:17.300Z,37.70
2019-02-25T08:27:44.667Z,37.57
2019-02-25T08:30:11.359Z,37.49
2019-02-25T08:32:38.392Z,38.22
2019-02-25T08:35:05.465Z,38.05
2019-02-25T08:37:32.152Z,37.85
2019-02-25T08:39:58.809Z,37.74
2019-02-25T08:42:25.887Z,37.36
2019-02-25T08:44:52.585Z,37.40
2019-02-25T08:50:04.774Z,36.34
2019-02-25T08:52:31.660Z,36.66
2019-02-25T08:54:58.444Z,36.53
2019-02-25T08:57:25.155Z,36.61
2019-02-25T08:59:52.420Z,36.30
2019-02-25T09:02:19.569Z,35.73
2019-02-25T09:04:46.192Z,36.26
2019-02-25T09:07:12.804Z,35.82
2019-02-25T09:09:39.761Z,36.22
2019-02-25T09:12:06.366Z,35.63
2019-02-25T09:14:33.359Z,34.33
2019-02-25T09:17:00.312Z,34.02
2019-02-25T09:19:27.229Z,33.75
2019-02-25T09:21:54.253Z,33.86
2019-02-25T09:24:20.917Z,34.15
2019-02-25T09:26:47.571Z,34.17
2019-02-25T09:29:14.232Z,34.92
2019-02-25T09:31:41.457Z,34.40
2019-02-25T09:34:08.285Z,33.82
2019-02-25T09:36:35.168Z,33.93
2019-02-25T09:39:02.434Z,34.35
2019-02-25T09:41:30.270Z,34.45
2019-02-25T09:43:57.658Z,33.38
2019-02-25T09:46:24.714Z,34.61
2019-02-25T09:48:51.599Z,33.94
2019-02-25T09:51:18.891Z,33.66
2019-02-25T09:53:45.854Z,34.23
2019-02-25T09:56:12.712Z,33.75
2019-02-25T09:58:39.314Z,33.13
2019-02-25T10:01:06.225Z,33.59
2019-02-25T10:03:32.890Z,33.89
2019-02-25T10:05:59.959Z,32.94
2019-02-25T10:08:26.939Z,33.58
2019-02-25T10:10:53.618Z,32.64
2019-02-25T10:13:20.290Z,32.40
2019-02-25T10:15:47.488Z,33.10
2019-02-25T10:18:14.134Z,33.25
2019-02-25T10:20:40.889Z,33.11
2019-02-25T10:23:07.889Z,33.45
2019-02-25T10:25:34.547Z,33.56
2019-02-25T10:28:01.424Z,31.99
2019-02-25T10:30:28.469Z,31.70
2019-02-25T10:32:55.179Z,32.26
2019-02-25T10:35:21.847Z,32.33
2019-02-25T10:37:48.683Z,32.11
2019-02-25T10:40:17.567Z,32.54
2019-02-25T10:42:44.547Z,33.07
2019-02-25T10:45:13.499Z,32.59
2019-02-25T10:47:41.691Z,32.54
2019-02-25T10:50:08.615Z,32.85
2019-02-25T10:52:35.473Z,32.29
2019-02-25T10:55:02.194Z,32.78
2019-02-25T10:57:31.284Z,32.88
2019-02-25T10:59:58.064Z,31.91
2019-02-25T11:02:24.774Z,32.72
2019-02-25T11:04:53.581Z,32.36
2019-02-25T11:07:22.079Z,33.10
2019-02-25T11:09:50.379Z,32.39
2019-02-25T11:12:17.941Z,32.99
2019-02-25T11:14:44.849Z,32.77
2019-02-25T11:17:13.911Z,33.10
2019-02-25T11:19:41.213Z,33.09
2019-02-25T11:22:10.070Z,32.81
2019-02-25T11:24:36.792Z,32.87
2019-02-25T11:27:05.123Z,32.81
2019-02-25T11:29:32.200Z,31.38
2019-02-25T11:31:58.855Z,32.18
2019-02-25T11:34:25.519Z,32.48
2019-02-25T11:36:54.712Z,31.97
2019-02-25T11:39:20.938Z,32.74
2019-02-25T11:41:47.691Z,32.54
2019-02-25T11:44:16.563Z,31.87
2019-02-25T11:46:43.383Z,32.16
2019-02-25T11:49:10.056Z,31.71
2019-02-25T11:51:36.695Z,32.09
2019-02-25T11:54:03.331Z,31.20
2019-02-25T11:56:31.184Z,31.61
2019-02-25T11:58:58.231Z,31.01
2019-02-25T12:01:25.112Z,31.24
2019-02-25T12:03:51.736Z,30.89
2019-02-25T12:06:18.490Z,31.41
2019-02-25T12:08:45.263Z,30.93
2019-02-25T12:11:12.238Z,30.84
2019-02-25T12:13:39.709Z,31.22
2019-02-25T12:16:06.324Z,31.18
2019-02-25T12:18:33.242Z,30.90
2019-02-25T12:21:00.524Z,30.43
2019-02-25T12:23:27.425Z,30.17
2019-02-25T12:25:54.220Z,30.49
2019-02-25T12:28:21.905Z,29.75
2019-02-25T12:30:48.790Z,29.69
2019-02-25T12:33:15.492Z,30.90
2019-02-25T12:35:42.503Z,30.70
2019-02-25T12:38:09.299Z,30.16
2019-02-25T12:40:36.266Z,30.46
2019-02-25T12:43:03.538Z,30.12
2019-02-25T12:45:30.611Z,30.75
2019-02-25T12:47:57.352Z,30.97
2019-02-25T12:50:24.590Z,31.14
2019-02-25T12:52:51.677Z,31.14
2019-02-25T12:55:18.762Z,31.07
2019-02-25T12:57:45.475Z,30.80
2019-02-25T13:00:12.222Z,29.86
2019-02-25T13:02:38.810Z,29.22
2019-02-25T13:05:05.839Z,29.44
2019-02-25T13:07:32.461Z,29.10
2019-02-25T13:09:59.351Z,29.41
2019-02-25T13:12:26.486Z,29.06
2019-02-25T13:14:53.409Z,29.16
2019-02-25T13:17:22.038Z,28.20
2019-02-25T13:19:48.580Z,28.75
2019-02-25T13:22:15.121Z,28.75
2019-02-25T13:24:41.892Z,29.06
2019-02-25T13:27:11.056Z,28.36
2019-02-25T13:29:37.391Z,28.45
2019-02-25T13:32:05.090Z,29.13
2019-02-25T13:34:31.974Z,29.11
2019-02-25T13:36:58.642Z,28.94
2019-02-25T13:39:26.939Z,29.09
2019-02-25T13:41:53.564Z,28.44
2019-02-25T13:44:20.585Z,28.53
2019-02-25T13:46:48.692Z,28.29
2019-02-25T13:49:15.335Z,28.79
2019-02-25T13:51:42.362Z,29.29
2019-02-25T13:54:09.922Z,28.43
2019-02-25T13:56:36.541Z,28.18
2019-02-25T13:59:03.439Z,28.02
2019-02-25T14:01:30.858Z,28.52
2019-02-25T14:03:57.417Z,28.48
2019-02-25T14:06:28.368Z,28.12
2019-02-25T14:08:55.209Z,28.08
2019-02-25T14:11:21.949Z,27.89
2019-02-25T14:13:49.266Z,27.79
2019-02-25T14:16:16.558Z,28.05
2019-02-25T14:18:43.637Z,28.83
2019-02-25T14:21:10.319Z,29.23
2019-02-25T14:23:38.235Z,29.50
2019-02-25T14:26:05.887Z,28.99
2019-02-25T14:28:32.602Z,29.27
2019-02-25T14:30:59.578Z,29.33
2019-02-25T14:33:26.253Z,29.70
2019-02-25T14:35:54.305Z,29.47
2019-02-25T14:38:23.250Z,29.92
2019-02-25T14:40:51.455Z,29.60
2019-02-25T14:43:20.586Z,30.36
2019-02-25T14:45:51.792Z,30.44
2019-02-25T14:48:20.464Z,30.02
2019-02-25T14:50:44.591Z,29.93
2019-02-25T14:53:14.416Z,30.13
2019-02-25T14:55:40.769Z,30.34
2019-02-25T14:58:10.516Z,30.10
2019-02-25T15:00:38.153Z,30.48
2019-02-25T15:03:05.203Z,30.40
2019-02-25T15:05:33.491Z,30.31
2019-02-25T15:08:00.554Z,30.11
2019-02-25T15:10:31.327Z,30.36
2019-02-25T15:12:58.966Z,30.45
2019-02-25T15:15:25.203Z,30.22
2019-02-25T15:17:52.751Z,30.49
2019-02-25T15:20:20.888Z,30.09
2019-02-25T15:22:47.835Z,30.52
2019-02-25T15:25:14.681Z,30.88
2019-02-25T15:27:41.572Z,30.61
2019-02-25T15:30:08.215Z,30.95
2019-02-25T15:32:37.238Z,31.14
2019-02-25T15:35:04.758Z,31.70
2019-02-25T15:37:31.481Z,32.23
2019-02-25T15:40:00.306Z,32.20
2019-02-25T15:42:28.379Z,32.23
2019-02-25T15:44:57.984Z,32.39
2019-02-25T15:47:24.706Z,32.51
2019-02-25T15:49:51.460Z,32.36
2019-02-25T15:52:20.987Z,32.61
2019-02-25T15:54:47.759Z,32.74
2019-02-25T15:57:14.484Z,32.35
2019-02-25T15:59:41.785Z,32.47
2019-02-25T16:02:13.514Z,32.66
2019-02-25T16:04:38.690Z,33.29
2019-02-25T16:07:08.414Z,33.70
2019-02-25T16:09:36.498Z,33.96
2019-02-25T16:12:05.311Z,34.13
2019-02-25T16:14:31.749Z,34.06
2019-02-25T16:16:58.639Z,34.09
2019-02-25T16:19:32.961Z,34.16
2019-02-25T16:21:54.784Z,34.35
2019-02-25T16:24:24.013Z,34.53
2019-02-25T16:26:51.041Z,34.76
2019-02-25T16:29:17.776Z,34.97
2019-02-25T16:31:44.612Z,35.12
2019-02-25T16:34:12.048Z,35.18
2019-02-25T16:36:40.085Z,35.34
2019-02-25T16:39:07.673Z,35.43
2019-02-25T16:41:36.675Z,35.86
2019-02-25T16:44:04.581Z,36.01
2019-02-25T16:46:34.217Z,36.14
2019-02-25T16:49:01.001Z,36.39
2019-02-25T16:51:28.601Z,36.48
2019-02-25T16:53:56.437Z,36.48
2019-02-25T16:56:23.401Z,36.57
2019-02-25T16:58:52.750Z,36.81
2019-02-25T17:01:19.364Z,37.27
2019-02-25T17:03:48.288Z,37.40
2019-02-25T17:06:15.033Z,37.47
2019-02-25T17:08:42.157Z,37.81
2019-02-25T17:11:10.687Z,37.95
2019-02-25T17:13:39.415Z,38.20
2019-02-25T17:16:17.675Z,38.40
2019-02-25T17:18:35.103Z,38.74
2019-02-25T17:21:01.839Z,39.11
2019-02-25T17:23:30.294Z,39.30
2019-02-25T17:25:57.375Z,39.69
2019-02-25T17:28:25.023Z,39.82
2019-02-25T17:30:53.252Z,40.42
2019-02-25T17:33:20.168Z,41.04
2019-02-25T17:36:02.630Z,41.37
2019-02-25T17:38:29.652Z,41.75
2019-02-25T17:41:04.019Z,41.49
2019-02-25T17:43:32.123Z,41.22
2019-02-25T17:46:00.591Z,40.89
2019-02-25T17:48:28.422Z,41.42
2019-02-25T17:50:57.199Z,41.29
2019-02-25T17:56:07.397Z,41.53
2019-02-25T17:58:36.000Z,42.02
2019-02-25T18:01:05.630Z,42.25
2019-02-25T18:06:33.983Z,42.79
2019-02-25T18:09:04.688Z,43.39
2019-02-25T18:11:31.542Z,43.49
2019-02-25T18:13:58.493Z,43.35
2019-02-25T18:16:25.499Z,43.56
2019-02-25T18:18:54.259Z,43.61
2019-02-25T18:23:53.651Z,43.63
2019-02-25T18:26:20.811Z,43.69
2019-02-25T18:28:48.414Z,43.51
2019-02-25T18:31:16.664Z,43.57
2019-02-25T18:33:44.073Z,43.69
2019-02-25T18:36:12.267Z,43.76
2019-02-25T18:38:39.229Z,45.00
2019-02-25T18:41:07.011Z,45.14
2019-02-25T18:43:34.238Z,44.96
2019-02-25T18:46:02.878Z,45.39
2019-02-25T18:48:29.893Z,45.23
2019-02-25T18:50:58.985Z,45.38
2019-02-25T18:53:28.809Z,45.84
2019-02-25T18:55:59.127Z,45.93
2019-02-25T18:58:28.424Z,46.37
2019-02-25T19:00:57.307Z,46.36
2019-02-25T19:06:14.575Z,47.56
2019-02-25T19:11:28.257Z,47.89
2019-02-25T19:14:12.953Z,47.91
2019-02-25T19:16:42.180Z,47.99
2019-02-25T19:19:12.134Z,48.57
2019-02-25T19:21:40.411Z,47.88
2019-02-25T19:24:09.754Z,48.33
2019-02-25T19:26:40.362Z,48.18
2019-02-25T19:29:06.240Z,48.07
2019-02-25T19:31:34.159Z,47.32
2019-02-25T19:36:52.209Z,46.89
2019-02-25T19:39:19.903Z,47.07
2019-02-25T19:41:53.467Z,46.84
2019-02-25T19:44:22.305Z,46.77
2019-02-25T19:46:51.239Z,47.08
2019-02-25T19:49:20.698Z,47.23
2019-02-25T19:51:50.721Z,47.36
2019-02-25T19:54:19.049Z,47.02
2019-02-25T19:56:48.395Z,47.68
2019-02-25T19:59:22.124Z,47.33
2019-02-25T20:02:01.632Z,47.59
2019-02-25T20:04:28.246Z,47.53
2019-02-25T20:06:56.092Z,47.75
2019-02-25T20:09:24.642Z,47.70
2019-02-25T20:11:51.254Z,48.41
2019-02-25T20:14:19.744Z,49.00
2019-02-25T20:16:47.756Z,48.71
2019-02-25T20:19:16.796Z,49.99
2019-02-25T20:21:43.545Z,49.93
2019-02-25T20:24:14.233Z,49.86
2019-02-25T20:26:40.512Z,50.42
2019-02-25T20:29:08.517Z,49.93
2019-02-25T20:31:35.768Z,49.27
2019-02-25T20:34:02.712Z,49.63
2019-02-25T20:36:30.722Z,49.54
2019-02-25T20:39:00.294Z,49.82
2019-02-25T20:41:28.679Z,49.81
2019-02-25T20:43:56.733Z,49.60
2019-02-25T20:46:26.227Z,49.66
2019-02-25T20:48:53.004Z,49.49
2019-02-25T20:51:22.708Z,49.62
2019-02-25T20:53:50.877Z,49.10
2019-02-25T20:56:18.355Z,49.43
2019-02-25T20:58:46.762Z,49.61
2019-02-25T21:01:13.704Z,49.61
2019-02-25T21:03:43.908Z,49.92
2019-02-25T21:06:12.179Z,49.80
2019-02-25T21:08:39.965Z,49.27
2019-02-25T21:11:10.965Z,48.93
2019-02-25T21:13:38.049Z,48.60
2019-02-25T21:16:08.204Z,49.17
2019-02-25T21:18:34.373Z,49.48
2019-02-25T21:21:01.534Z,49.31
2019-02-25T21:23:28.270Z,49.71
2019-02-25T21:25:57.462Z,50.33
2019-02-25T21:28:27.071Z,50.01
2019-02-25T21:30:52.841Z,50.16
2019-02-25T21:33:20.039Z,51.12
2019-02-25T21:35:48.138Z,52.40
2019-02-25T21:38:14.759Z,52.70
2019-02-25T21:40:41.399Z,52.05
2019-02-25T21:43:09.728Z,51.25
2019-02-25T21:45:36.698Z,52.54
2019-02-25T21:48:05.561Z,52.06
2019-02-25T21:50:34.069Z,51.72
2019-02-25T21:53:04.914Z,51.61
2019-02-25T21:55:32.650Z,51.19
2019-02-25T21:58:02.016Z,51.49
2019-02-25T22:00:31.969Z,51.81
2019-02-25T22:02:56.235Z,51.80
2019-02-25T22:05:23.707Z,51.61
2019-02-25T22:07:54.422Z,52.96
2019-02-25T22:10:20.513Z,53.24
2019-02-25T22:12:47.707Z,52.67
2019-02-25T22:15:15.784Z,52.63
2019-02-25T22:17:45.624Z,53.67
2019-02-25T22:20:14.375Z,53.91
2019-02-25T22:22:40.594Z,53.28
2019-02-25T22:25:08.487Z,52.32
2019-02-25T22:27:37.400Z,52.55
2019-02-25T22:30:07.356Z,53.03
2019-02-25T22:32:36.054Z,53.46
2019-02-25T22:35:04.867Z,53.51
2019-02-25T22:37:31.239Z,53.73
2019-02-25T22:39:58.183Z,53.87
2019-02-25T22:42:26.865Z,53.00
2019-02-25T22:44:54.046Z,53.22
2019-02-25T22:47:23.041Z,53.08
2019-02-25T22:49:49.642Z,52.98
2019-02-25T22:52:16.452Z,52.53
2019-02-25T22:54:43.541Z,53.14
2019-02-25T22:57:10.677Z,52.78
2019-02-25T22:59:37.634Z,52.31
2019-02-25T23:02:04.260Z,52.54
2019-02-25T23:04:31.159Z,53.09
2019-02-25T23:06:58.536Z,53.34
2019-02-25T23:09:25.786Z,53.09
2019-02-25T23:11:53.130Z,53.71
2019-02-25T23:14:21.461Z,53.30
2019-02-25T23:16:48.243Z,52.90
2019-02-25T23:19:15.875Z,53.46
2019-02-25T23:21:46.010Z,53.38
2019-02-25T23:24:12.949Z,54.08
2019-02-25T23:26:39.574Z,54.40
2019-02-25T23:29:06.573Z,53.78
2019-02-25T23:31:33.270Z,53.52
2019-02-25T23:34:00.169Z,53.63
2019-02-25T23:36:26.808Z,54.25
2019-02-25T23:38:54.895Z,53.99
2019-02-25T23:41:21.967Z,53.92
2019-02-25T23:43:48.767Z,53.79
2019-02-25T23:46:15.605Z,53.61
2019-02-25T23:48:44.632Z,53.78
2019-02-25T23:51:12.019Z,53.87
2019-02-25T23:53:39.280Z,53.90
2019-02-25T23:56:06.202Z,53.85
